메인 페이지
METAR-TAF:

METAR-TAF

공항 :

타브리즈, 이란

위도: 38-05N, 경도: 046-17E, 고도: 1367m

현재 날씨관측

예보는 15분 전, 17:00시(UTC)에 발표되었습니다.
무풍
온도 3°C
습도 87%
기압 1020 hPa
시정: 4000m
고도 1000ft 상공 구름 보통
고도 3500ft 상공 구름 보통
고도 8000ft 상공 구름 많음
박무

METAR: OITT 101700Z 00000KT 4000 BR SCT010 SCT035 BKN080 03/01 Q1019 A3012 NOSIG

시각: 20:45 (17:15 UTC)

예보

예보는 5 시간 45분 전, 11:30시(UTC)에 발표되었습니다.
예보 대상 시간: 10일 12시부터 11일 18시까지 (UTC)
북북동8kt
시정: 6000m
고도 3000ft 상공 구름 조금, 적란운.
고도 3500ft 상공 구름 보통
고도 9000ft 상공 구름 많음
전환 중
10일 17시부터 10일 19시까지 (UTC)
고도 3000ft 상공 구름 조금
고도 9000ft 상공 구름 보통
일시적
11일 00시부터 11일 06시까지 (UTC)
시정: 3000m
고도 1000ft 상공 구름 많음
고도 8000ft 상공 흐림
박무
일시적
11일 09시부터 11일 15시까지 (UTC)
고도 3500ft 상공 구름 조금, 적란운.
고도 4000ft 상공 구름 보통
고도 9000ft 상공 구름 많음

TAF: OITT 101130Z 1012/1118 03008KT 6000 FEW030CB SCT035 BKN090 BECMG 1017/1019 FEW030 SCT090 TEMPO 1100/1106 3000 BR BKN010 OVC080 TEMPO 1109/1115 FEW035CB SCT040 BKN090

4,000개 이상의 공항 관측 자료 및 예보 (METAR 및 TAF 보고).

지도상에서 검색 가능한 기상관측소가 노란 점과 빨간 점으로 표시되어 있습니다.

기상관측소 명을 보려면 표시 위로 마우스를 이동하세요.

날씨 관측과 예보를 보려면 클릭하세요.

지도 변경 : 확대하려면 엑스 표시가 있는 녹색 버튼, 축소하려면 빼기 표시가 있는 녹색 버튼, 다음 페이지의 지도를 보려면 녹색 화살표를 클릭하세요.


METAR-TAF: